Terminal Aerodrome Forecast
Issued by NWS

Current Version | Previous Version | Text Only | Print | Product List | Glossary On
Versions: 1 2 3 4 5 6 7 8 9 10 11 12 13 14 15 16 17 18
401
FTUS42 KTAE 082320
TAFVLD
TAF
KVLD 082320Z 0900/0924 36008KT P6SM BKN200
     FM092300 02006KT P6SM SKC=

USA.gov is the U.S. government's official web portal to all federal, state and local government web resources and services.